Time;durP1;ratioP1;P1;durP2;ratioP2;P2;SDS_P1;SDS_P2;PMS_P1;PMS_P2;Temp;Humidity;BMP_temperature;BMP_pressure;BME280_temperature;BME280_humidity;BME280_pressure;Samples;Min_cycle;Max_cycle;Signal;HPM_P1;HPM_P2
2022/10/09 00:01:22;;;;;;;11.88;5.15;;;8.60;99.90;;;;;;5012134;28;20042;-68
2022/10/09 00:03:49;;;;;;;11.85;5.50;;;8.50;99.90;;;;;;5007891;28;20037;-68
2022/10/09 00:06:21;;;;;;;16.10;5.10;;;8.50;99.90;;;;;;5029853;28;20055;-68
2022/10/09 00:08:46;;;;;;;10.95;5.05;;;8.40;99.90;;;;;;5002930;28;20038;-68
2022/10/09 00:11:19;;;;;;;18.83;5.57;;;8.40;99.90;;;;;;4990338;28;20042;-68
2022/10/09 00:13:46;;;;;;;12.35;5.55;;;8.40;99.90;;;;;;5012369;28;20060;-68
2022/10/09 00:16:13;;;;;;;10.80;5.10;;;8.40;99.90;;;;;;5012227;28;20516;-69
2022/10/09 00:18:40;;;;;;;14.93;4.85;;;8.40;99.90;;;;;;5007303;28;20068;-68
2022/10/09 00:21:13;;;;;;;12.60;4.95;;;8.40;99.90;;;;;;4995320;28;20046;-68
2022/10/09 00:23:39;;;;;;;9.13;5.38;;;8.40;99.90;;;;;;4996376;28;20049;-69
2022/10/09 00:26:06;;;;;;;12.57;5.20;;;8.40;99.90;;;;;;4995230;28;20617;-68
2022/10/09 00:28:31;;;;;;;13.43;5.40;;;8.40;99.90;;;;;;5009486;28;20563;-68
2022/10/09 00:30:57;;;;;;;14.45;4.97;;;8.40;99.90;;;;;;5029475;28;20125;-68
2022/10/09 00:33:23;;;;;;;13.45;5.25;;;8.30;99.90;;;;;;5007210;28;20069;-68
2022/10/09 00:35:49;;;;;;;17.38;5.55;;;8.30;99.90;;;;;;5008869;28;20089;-68
2022/10/09 00:38:15;;;;;;;12.27;5.38;;;8.30;99.90;;;;;;4989445;28;20041;-68
2022/10/09 00:40:41;;;;;;;13.10;5.25;;;8.30;99.90;;;;;;4995363;28;20384;-68
2022/10/09 00:43:36;;;;;;;11.32;5.53;;;8.20;99.90;;;;;;5011705;28;20048;-68
2022/10/09 00:46:02;;;;;;;10.77;5.32;;;8.20;99.90;;;;;;5011718;28;20549;-68
2022/10/09 00:48:28;;;;;;;11.20;5.47;;;8.20;99.90;;;;;;4995032;28;20044;-69
2022/10/09 00:50:57;;;;;;;13.18;5.85;;;8.20;99.90;;;;;;5002850;28;20465;-68
2022/10/09 00:53:25;;;;;;;11.98;5.70;;;8.20;99.90;;;;;;5011277;28;20044;-68
2022/10/09 00:55:52;;;;;;;16.27;5.88;;;8.10;99.90;;;;;;5007632;28;20120;-68
2022/10/09 00:58:18;;;;;;;11.60;5.22;;;8.10;99.90;;;;;;4995268;28;20041;-68
2022/10/09 01:00:44;;;;;;;13.85;5.75;;;8.10;99.90;;;;;;4993108;28;20041;-68
2022/10/09 01:03:10;;;;;;;12.43;5.45;;;8.10;99.90;;;;;;4995879;28;20053;-68
2022/10/09 01:05:54;;;;;;;15.80;5.80;;;8.10;99.90;;;;;;4994474;28;20049;-69
2022/10/09 01:08:30;;;;;;;13.60;5.47;;;8.00;99.90;;;;;;5011449;28;20065;-67
2022/10/09 01:11:44;;;;;;;9.85;5.25;;;8.00;99.90;;;;;;5022442;28;20045;-68
2022/10/09 01:14:15;;;;;;;11.13;5.70;;;8.00;99.90;;;;;;4929969;29;20039;-68
2022/10/09 01:16:55;;;;;;;14.90;6.05;;;7.90;99.90;;;;;;4914718;29;20144;-68
2022/10/09 01:19:34;;;;;;;10.40;5.18;;;7.90;99.90;;;;;;4994656;28;20449;-68
2022/10/09 01:22:20;;;;;;;13.05;5.65;;;7.90;99.90;;;;;;5010791;28;20041;-68
2022/10/09 01:24:59;;;;;;;12.50;5.90;;;7.90;99.90;;;;;;5011124;28;20124;-68
2022/10/09 01:27:26;;;;;;;13.90;6.22;;;7.90;99.90;;;;;;5011166;28;20055;-68
2022/10/09 01:30:02;;;;;;;13.48;5.50;;;7.90;99.90;;;;;;5009026;28;20029;-68
2022/10/09 01:32:32;;;;;;;14.30;6.05;;;7.80;99.90;;;;;;5011123;28;20568;-68
2022/10/09 01:34:59;;;;;;;18.15;6.28;;;7.80;99.90;;;;;;5002406;28;20102;-68
2022/10/09 01:37:28;;;;;;;14.23;5.60;;;7.80;99.90;;;;;;4978506;28;20045;-68
2022/10/09 01:39:53;;;;;;;13.57;5.50;;;7.80;99.90;;;;;;5010962;28;20124;-68
2022/10/09 01:42:21;;;;;;;12.95;6.05;;;7.80;99.90;;;;;;4992876;28;20163;-68
2022/10/09 01:44:47;;;;;;;14.60;5.95;;;7.80;99.90;;;;;;5029171;28;20124;-68
2022/10/09 01:47:18;;;;;;;15.88;6.07;;;7.70;99.90;;;;;;5006171;28;20120;-68
2022/10/09 01:50:20;;;;;;;12.38;5.90;;;7.70;99.90;;;;;;4994320;28;20487;-68
2022/10/09 01:52:52;;;;;;;9.98;5.57;;;7.70;99.90;;;;;;4994076;28;20124;-68
2022/10/09 01:55:26;;;;;;;11.83;5.60;;;7.70;99.90;;;;;;4994771;28;20104;-68
2022/10/09 01:58:05;;;;;;;13.02;5.95;;;7.70;99.90;;;;;;4994315;28;20033;-68
2022/10/09 02:00:36;;;;;;;13.52;5.80;;;7.70;99.90;;;;;;5010882;28;20132;-68
2022/10/09 02:03:06;;;;;;;15.65;6.13;;;7.60;99.90;;;;;;5010723;28;20042;-68
2022/10/09 02:05:32;;;;;;;10.05;5.60;;;7.70;99.90;;;;;;5011028;28;20072;-68
2022/10/09 02:07:58;;;;;;;16.25;6.20;;;7.60;99.90;;;;;;5010637;28;20069;-68
2022/10/09 02:10:25;;;;;;;14.70;6.53;;;7.60;99.90;;;;;;5010725;28;20080;-68
2022/10/09 02:12:57;;;;;;;10.63;6.10;;;7.60;99.90;;;;;;4994358;28;20037;-68
2022/10/09 02:15:46;;;;;;;18.60;6.18;;;7.60;99.90;;;;;;5010531;28;20037;-68
2022/10/09 02:18:16;;;;;;;12.85;5.60;;;7.60;99.90;;;;;;5013282;28;20128;-68
2022/10/09 02:20:47;;;;;;;11.50;5.85;;;7.50;99.90;;;;;;5011645;28;20526;-68
2022/10/09 02:23:14;;;;;;;10.30;5.43;;;7.50;99.90;;;;;;4997720;28;20521;-68
2022/10/09 02:25:40;;;;;;;11.65;6.05;;;7.50;99.90;;;;;;5014166;28;20277;-68
2022/10/09 02:28:08;;;;;;;13.35;5.60;;;7.50;99.90;;;;;;4997775;28;20076;-68
2022/10/09 02:30:54;;;;;;;10.60;5.45;;;7.50;99.90;;;;;;4998414;28;20125;-68
2022/10/09 02:33:27;;;;;;;12.90;5.75;;;7.50;99.90;;;;;;4997734;28;20112;-67
2022/10/09 02:35:53;;;;;;;13.57;5.80;;;7.50;99.90;;;;;;5007779;28;20052;-68
2022/10/09 02:38:18;;;;;;;22.90;6.35;;;7.50;99.90;;;;;;5027281;28;20034;-67
2022/10/09 02:40:44;;;;;;;12.63;5.50;;;7.50;99.90;;;;;;4995645;28;20525;-68
2022/10/09 02:43:10;;;;;;;10.20;5.35;;;7.40;99.90;;;;;;4997453;28;20044;-67
2022/10/09 02:45:35;;;;;;;12.60;5.88;;;7.40;99.90;;;;;;4998465;28;20128;-67
2022/10/09 02:48:01;;;;;;;13.20;6.13;;;7.40;99.90;;;;;;4997306;28;20086;-66
2022/10/09 02:50:27;;;;;;;10.05;5.97;;;7.40;99.90;;;;;;4997297;28;20065;-68
2022/10/09 02:52:53;;;;;;;15.63;5.80;;;7.30;99.90;;;;;;5031399;28;20762;-67
2022/10/09 02:55:18;;;;;;;13.15;6.07;;;7.30;99.90;;;;;;4992952;28;20075;-68
2022/10/09 02:57:44;;;;;;;17.20;6.15;;;7.30;99.90;;;;;;5031252;28;20068;-68
2022/10/09 03:00:11;;;;;;;17.05;6.32;;;7.30;99.90;;;;;;4997497;28;20025;-68
2022/10/09 03:02:36;;;;;;;15.88;6.03;;;7.30;99.90;;;;;;4997147;28;20079;-68
2022/10/09 03:05:02;;;;;;;13.98;6.43;;;7.30;99.90;;;;;;5031318;28;20057;-68
2022/10/09 03:07:28;;;;;;;16.73;6.43;;;7.30;99.90;;;;;;4978698;28;20117;-68
2022/10/09 03:09:55;;;;;;;12.40;6.68;;;7.20;99.90;;;;;;4997048;28;20030;-68
2022/10/09 03:12:21;;;;;;;13.30;6.00;;;7.30;99.90;;;;;;4997619;28;20150;-67
2022/10/09 03:14:47;;;;;;;11.48;6.53;;;7.20;99.90;;;;;;5013455;28;20510;-68
2022/10/09 03:17:13;;;;;;;14.00;6.38;;;7.20;99.90;;;;;;5013305;28;20486;-68
2022/10/09 03:19:38;;;;;;;16.25;7.18;;;7.20;99.90;;;;;;4981134;28;20503;-67
2022/10/09 03:22:04;;;;;;;12.77;7.38;;;7.10;99.90;;;;;;5012976;28;20041;-70
2022/10/09 03:24:30;;;;;;;11.02;6.38;;;7.10;99.90;;;;;;4962132;28;20488;-68
2022/10/09 03:26:56;;;;;;;13.82;6.90;;;7.10;99.90;;;;;;4996575;28;20038;-68
2022/10/09 03:29:22;;;;;;;12.25;6.72;;;7.00;99.90;;;;;;4994471;28;20036;-68
2022/10/09 03:31:48;;;;;;;12.82;6.55;;;7.00;99.90;;;;;;5013196;28;20039;-67
2022/10/09 03:34:14;;;;;;;14.10;7.15;;;7.00;99.90;;;;;;4994358;28;20121;-67
2022/10/09 03:36:41;;;;;;;15.05;7.30;;;7.00;99.90;;;;;;5013348;28;20041;-67
2022/10/09 03:39:07;;;;;;;10.48;6.47;;;7.00;99.90;;;;;;4996637;28;20037;-68
2022/10/09 03:41:32;;;;;;;11.63;6.38;;;6.90;99.90;;;;;;4996316;28;20129;-67
2022/10/09 03:43:58;;;;;;;15.23;7.25;;;6.90;99.90;;;;;;4996484;28;20037;-68
2022/10/09 03:46:25;;;;;;;18.05;6.78;;;6.90;99.90;;;;;;4996712;28;20046;-67
2022/10/09 03:48:51;;;;;;;15.30;7.13;;;6.90;99.90;;;;;;4991804;28;20042;-68
2022/10/09 03:51:17;;;;;;;13.68;6.80;;;6.90;99.90;;;;;;4996956;28;20037;-68
2022/10/09 03:53:42;;;;;;;12.82;6.68;;;6.90;99.90;;;;;;4996255;28;20037;-68
2022/10/09 03:56:08;;;;;;;17.63;7.40;;;6.90;99.90;;;;;;5012679;28;20041;-68
2022/10/09 03:58:34;;;;;;;12.68;7.25;;;6.90;99.90;;;;;;5010366;28;20144;-67
2022/10/09 04:00:59;;;;;;;13.63;6.95;;;6.90;99.90;;;;;;5012237;28;20389;-68
2022/10/09 04:03:26;;;;;;;10.20;6.32;;;6.90;99.90;;;;;;4996377;28;20060;-68
2022/10/09 04:05:52;;;;;;;13.93;7.43;;;6.80;99.90;;;;;;5012557;28;20285;-67
2022/10/09 04:08:18;;;;;;;16.75;7.30;;;6.80;99.90;;;;;;5012346;28;20037;-68
2022/10/09 04:10:43;;;;;;;12.48;6.30;;;6.80;99.90;;;;;;4996044;28;20033;-68
2022/10/09 04:13:09;;;;;;;13.10;6.93;;;6.80;99.90;;;;;;5012371;28;20037;-69
2022/10/09 04:15:36;;;;;;;14.40;7.35;;;6.80;99.90;;;;;;4996383;28;20037;-68
2022/10/09 04:18:02;;;;;;;16.70;7.00;;;6.80;99.90;;;;;;5012310;28;20731;-69
2022/10/09 04:20:28;;;;;;;10.00;6.97;;;6.80;99.90;;;;;;5012276;28;20037;-69
2022/10/09 04:22:54;;;;;;;10.88;6.07;;;6.70;99.90;;;;;;4996004;28;20091;-69
2022/10/09 04:25:20;;;;;;;12.23;7.65;;;6.70;99.90;;;;;;5007987;28;20037;-68
2022/10/09 04:27:45;;;;;;;13.27;6.85;;;6.20;99.90;;;;;;5026504;28;20042;-69
2022/10/09 04:30:11;;;;;;;13.90;7.18;;;6.70;99.90;;;;;;4985969;28;20029;-69
2022/10/09 04:32:37;;;;;;;10.00;6.15;;;6.70;99.90;;;;;;5021183;28;20127;-69
2022/10/09 04:35:04;;;;;;;8.63;6.03;;;6.60;99.90;;;;;;4987639;28;20271;-69
2022/10/09 04:37:30;;;;;;;11.35;6.40;;;6.50;99.90;;;;;;4988825;28;20045;-69
2022/10/09 04:39:56;;;;;;;12.38;6.80;;;6.50;99.90;;;;;;4984346;28;20041;-69
2022/10/09 04:42:22;;;;;;;10.32;6.68;;;6.40;99.90;;;;;;4984104;28;20053;-69
2022/10/09 04:44:47;;;;;;;10.40;6.32;;;6.30;99.90;;;;;;4992332;28;20070;-69
2022/10/09 04:47:13;;;;;;;11.95;5.95;;;6.30;99.90;;;;;;4990459;28;20033;-68
2022/10/09 04:49:39;;;;;;;10.52;6.65;;;6.30;99.90;;;;;;5002636;28;20037;-69
2022/10/09 04:52:05;;;;;;;14.15;7.55;;;6.30;99.90;;;;;;5002748;28;20231;-69
2022/10/09 04:54:30;;;;;;;18.15;7.22;;;6.20;99.90;;;;;;5020714;28;20045;-69
2022/10/09 04:56:56;;;;;;;12.15;7.00;;;6.20;99.90;;;;;;5003831;28;20043;-68
2022/10/09 04:59:22;;;;;;;16.00;8.13;;;6.20;99.90;;;;;;4989291;28;20041;-68
2022/10/09 05:01:48;;;;;;;14.40;7.95;;;6.10;99.90;;;;;;4973454;28;20059;-69
2022/10/09 05:04:13;;;;;;;15.52;9.73;;;6.20;99.90;;;;;;4986959;28;20694;-68
2022/10/09 05:06:39;;;;;;;14.88;9.02;;;6.20;99.90;;;;;;5002787;28;20407;-69
2022/10/09 05:09:05;;;;;;;16.45;8.45;;;6.20;99.90;;;;;;4972378;28;20037;-69
2022/10/09 05:11:31;;;;;;;13.40;7.72;;;6.10;99.90;;;;;;4982706;28;20046;-69
2022/10/09 05:13:57;;;;;;;15.07;8.73;;;6.20;99.90;;;;;;5002826;28;20151;-69
2022/10/09 05:16:26;;;;;;;14.18;8.95;;;6.10;99.90;;;;;;4988368;28;20197;-68
2022/10/09 05:18:55;;;;;;;16.58;8.60;;;6.10;99.90;;;;;;5003368;28;20096;-69
2022/10/09 05:21:22;;;;;;;20.00;8.73;;;6.00;99.90;;;;;;5018383;28;20200;-69
2022/10/09 05:23:48;;;;;;;17.88;9.02;;;6.00;99.90;;;;;;5000348;28;20107;-69
2022/10/09 05:26:16;;;;;;;13.23;8.77;;;6.00;99.90;;;;;;4996723;28;20029;-69
2022/10/09 05:28:42;;;;;;;13.30;8.85;;;6.00;99.90;;;;;;5005452;28;20049;-67
2022/10/09 05:31:13;;;;;;;14.50;8.95;;;6.00;99.90;;;;;;5006485;28;20041;-68
2022/10/09 05:33:39;;;;;;;12.05;7.97;;;5.90;99.90;;;;;;4995611;28;20037;-69
2022/10/09 05:36:05;;;;;;;15.82;8.57;;;5.90;99.90;;;;;;5006851;28;20054;-67
2022/10/09 05:38:34;;;;;;;11.85;7.55;;;5.90;99.90;;;;;;4975494;28;20072;-68
2022/10/09 05:41:05;;;;;;;10.63;7.47;;;5.90;99.90;;;;;;5006500;28;20060;-69
2022/10/09 05:43:37;;;;;;;13.18;7.80;;;5.80;99.90;;;;;;4988466;28;20041;-68
2022/10/09 05:46:07;;;;;;;12.60;7.82;;;5.80;99.90;;;;;;4990247;28;20029;-68
2022/10/09 05:48:33;;;;;;;14.38;8.48;;;5.80;99.90;;;;;;5002493;28;20041;-67
2022/10/09 05:51:27;;;;;;;13.52;7.47;;;5.80;99.90;;;;;;4987653;28;20041;-68
2022/10/09 05:53:53;;;;;;;9.50;7.18;;;5.80;99.90;;;;;;5002399;28;20088;-68
2022/10/09 05:56:20;;;;;;;12.88;8.23;;;5.80;99.90;;;;;;4977532;28;20098;-68
2022/10/09 05:58:55;;;;;;;10.02;7.45;;;5.70;99.90;;;;;;5008917;28;20095;-69
2022/10/09 06:01:23;;;;;;;13.43;7.65;;;5.80;99.90;;;;;;4992654;28;20041;-69
2022/10/09 06:03:54;;;;;;;12.27;7.50;;;5.70;99.90;;;;;;5009036;28;20117;-68
2022/10/09 06:06:21;;;;;;;14.07;7.30;;;5.70;99.90;;;;;;5009115;28;20499;-69
2022/10/09 06:08:47;;;;;;;14.57;7.38;;;5.70;99.90;;;;;;5007619;28;20034;-69
2022/10/09 06:11:16;;;;;;;14.07;7.72;;;5.80;99.90;;;;;;5027462;28;20041;-69
2022/10/09 06:13:43;;;;;;;10.48;6.95;;;5.70;99.90;;;;;;4989518;28;20041;-68
2022/10/09 06:16:12;;;;;;;14.40;7.32;;;5.70;99.90;;;;;;5007557;28;20128;-69
2022/10/09 06:18:39;;;;;;;12.68;7.68;;;5.70;99.90;;;;;;5007332;28;20164;-70
2022/10/09 06:21:05;;;;;;;13.48;8.38;;;5.80;99.90;;;;;;4991585;28;20565;-70
2022/10/09 06:23:31;;;;;;;12.23;8.20;;;5.70;99.90;;;;;;4994020;28;20073;-69
2022/10/09 06:26:00;;;;;;;14.65;9.07;;;5.80;99.90;;;;;;5008963;28;20313;-69
2022/10/09 06:28:28;;;;;;;14.38;9.13;;;5.80;99.90;;;;;;4985806;28;20041;-69
2022/10/09 06:30:58;;;;;;;14.48;9.23;;;5.80;99.90;;;;;;5009152;28;20050;-69
2022/10/09 06:33:24;;;;;;;12.75;8.93;;;5.80;99.90;;;;;;5027756;28;20120;-69
2022/10/09 06:35:50;;;;;;;12.43;9.18;;;5.80;99.90;;;;;;4935997;28;20129;-69
2022/10/09 06:38:16;;;;;;;17.60;9.73;;;5.90;99.90;;;;;;4962252;28;20039;-69
2022/10/09 06:40:42;;;;;;;14.60;9.02;;;5.80;99.90;;;;;;4950989;28;20492;-69
2022/10/09 06:43:08;;;;;;;16.98;9.90;;;5.80;99.90;;;;;;4950481;28;20065;-69
2022/10/09 06:45:37;;;;;;;17.75;10.05;;;5.80;99.90;;;;;;4980995;28;20038;-69
2022/10/09 06:48:02;;;;;;;16.27;9.65;;;5.90;99.90;;;;;;4981262;28;20038;-69
2022/10/09 06:50:28;;;;;;;20.10;10.85;;;5.90;99.90;;;;;;4970155;28;21058;-69
2022/10/09 06:52:54;;;;;;;17.58;10.40;;;6.00;99.90;;;;;;4979730;28;20070;-70
2022/10/09 06:55:20;;;;;;;22.40;11.32;;;6.00;99.90;;;;;;4962911;28;20302;-69
2022/10/09 06:57:45;;;;;;;20.27;9.77;;;6.00;99.90;;;;;;4953184;28;20089;-69
2022/10/09 07:00:12;;;;;;;14.70;9.10;;;6.10;99.90;;;;;;4962145;28;20077;-69
2022/10/09 07:02:37;;;;;;;22.80;11.98;;;6.10;99.90;;;;;;4965108;28;20042;-68
2022/10/09 07:05:04;;;;;;;14.88;10.02;;;6.20;99.90;;;;;;4963631;28;20034;-68
2022/10/09 07:07:29;;;;;;;20.77;10.48;;;6.20;99.90;;;;;;4962589;28;20043;-68
2022/10/09 07:09:55;;;;;;;24.02;11.25;;;6.30;99.90;;;;;;4978959;28;20041;-68
2022/10/09 07:12:21;;;;;;;18.77;12.25;;;6.30;99.90;;;;;;4966386;28;20082;-68
2022/10/09 07:14:47;;;;;;;22.42;12.48;;;6.40;99.90;;;;;;4954766;28;20038;-68
2022/10/09 07:17:13;;;;;;;21.88;13.38;;;6.40;99.90;;;;;;4984295;28;20488;-69
2022/10/09 07:19:38;;;;;;;20.90;13.43;;;6.50;99.90;;;;;;4963198;28;20129;-68
2022/10/09 07:22:04;;;;;;;22.70;12.98;;;6.50;99.90;;;;;;4979115;28;20049;-69
2022/10/09 07:24:30;;;;;;;25.92;13.73;;;6.60;99.90;;;;;;4982887;28;20158;-68
2022/10/09 07:26:56;;;;;;;20.70;12.98;;;6.40;99.90;;;;;;4963715;28;20034;-68
2022/10/09 07:29:22;;;;;;;20.55;13.95;;;6.70;99.90;;;;;;4983927;28;20035;-68
2022/10/09 07:31:48;;;;;;;21.90;12.80;;;6.80;99.90;;;;;;4965108;28;20764;-68
2022/10/09 07:34:15;;;;;;;21.55;14.40;;;6.80;99.90;;;;;;4977637;28;20058;-68
2022/10/09 07:36:41;;;;;;;24.25;13.55;;;6.90;99.90;;;;;;4991357;28;20056;-69
2022/10/09 07:39:07;;;;;;;28.27;14.43;;;7.00;99.90;;;;;;4989974;28;20053;-68
2022/10/09 07:41:33;;;;;;;21.92;14.32;;;7.10;99.90;;;;;;5009224;28;20671;-68
2022/10/09 07:43:59;;;;;;;25.88;15.13;;;7.20;99.90;;;;;;4990549;28;20044;-68
2022/10/09 07:46:27;;;;;;;29.15;15.45;;;7.30;99.90;;;;;;5026998;28;20041;-68
2022/10/09 07:48:52;;;;;;;24.00;14.52;;;7.30;99.90;;;;;;4970382;28;20038;-68
2022/10/09 07:51:24;;;;;;;21.02;13.82;;;6.80;99.90;;;;;;5005310;28;20041;-68
2022/10/09 07:53:50;;;;;;;22.05;14.48;;;7.40;99.90;;;;;;4986070;28;20483;-68
2022/10/09 07:56:21;;;;;;;31.20;15.68;;;7.50;99.90;;;;;;5025370;28;20041;-68
2022/10/09 07:58:53;;;;;;;30.55;16.77;;;7.60;99.90;;;;;;5007288;28;20866;-68
2022/10/09 08:01:20;;;;;;;25.70;15.73;;;7.70;99.90;;;;;;5006925;28;20037;-68
2022/10/09 08:03:46;;;;;;;24.58;14.63;;;7.80;99.90;;;;;;5025736;28;20049;-69
2022/10/09 08:06:12;;;;;;;27.98;16.15;;;7.80;99.90;;;;;;5008880;28;20049;-68
2022/10/09 08:08:38;;;;;;;29.27;16.70;;;7.90;99.90;;;;;;5005662;28;20085;-69
2022/10/09 08:11:11;;;;;;;24.85;15.52;;;8.00;99.90;;;;;;4985670;28;20073;-68
2022/10/09 08:13:38;;;;;;;17.50;11.98;;;8.00;99.90;;;;;;5023168;28;20045;-68
2022/10/09 08:16:04;;;;;;;27.45;14.90;;;8.10;99.90;;;;;;5007303;28;20041;-68
2022/10/09 08:18:30;;;;;;;27.55;14.10;;;8.20;99.90;;;;;;4986509;28;20046;-69
2022/10/09 08:21:01;;;;;;;23.58;13.43;;;8.30;99.90;;;;;;4990851;28;20044;-68
2022/10/09 08:23:27;;;;;;;26.27;15.48;;;8.30;99.90;;;;;;4990843;28;20037;-68
2022/10/09 08:25:53;;;;;;;21.65;12.57;;;8.40;99.90;;;;;;5006120;28;20635;-68
2022/10/09 08:28:19;;;;;;;23.13;12.60;;;8.50;99.90;;;;;;5004494;28;20281;-68
2022/10/09 08:30:45;;;;;;;21.88;12.82;;;8.60;99.90;;;;;;4986877;28;20041;-68
2022/10/09 08:33:11;;;;;;;24.20;12.23;;;8.70;99.90;;;;;;5005136;28;20049;-68
2022/10/09 08:35:36;;;;;;;21.25;13.30;;;8.90;99.90;;;;;;5006477;28;20064;-68
2022/10/09 08:38:02;;;;;;;17.67;12.13;;;9.20;99.90;;;;;;4988560;28;20037;-68
2022/10/09 08:41:01;;;;;;;23.33;13.02;;;9.80;99.90;;;;;;4991927;28;20045;-69
2022/10/09 08:43:35;;;;;;;21.30;11.85;;;10.30;99.90;;;;;;4951574;28;20045;-69
2022/10/09 08:46:13;;;;;;;22.40;11.52;;;10.60;99.90;;;;;;5005478;28;20041;-68
2022/10/09 08:48:43;;;;;;;22.10;12.38;;;10.70;99.90;;;;;;5022446;28;20491;-67
2022/10/09 08:51:19;;;;;;;17.45;10.07;;;10.90;99.90;;;;;;5001159;28;20068;-68
2022/10/09 08:54:11;;;;;;;17.80;10.40;;;11.10;99.90;;;;;;4984511;28;20038;-68
2022/10/09 08:56:38;;;;;;;21.50;9.70;;;11.20;99.90;;;;;;4978199;28;20064;-68
2022/10/09 08:59:03;;;;;;;16.73;9.30;;;11.30;99.90;;;;;;5003824;28;20034;-68
2022/10/09 09:01:32;;;;;;;16.40;9.15;;;11.30;99.90;;;;;;5002356;28;20067;-68
2022/10/09 09:04:37;;;;;;;15.82;8.93;;;11.40;99.90;;;;;;5020770;28;20518;-68
2022/10/09 09:07:42;;;;;;;15.20;8.98;;;11.50;99.90;;;;;;4990914;28;20041;-69
2022/10/09 09:10:19;;;;;;;15.20;8.35;;;11.70;99.90;;;;;;4946804;28;20085;-68
2022/10/09 09:13:23;;;;;;;15.20;9.00;;;11.90;99.90;;;;;;4999979;28;20647;-68
2022/10/09 09:16:07;;;;;;;10.60;7.32;;;12.00;99.90;;;;;;4966743;28;20085;-68
2022/10/09 09:18:52;;;;;;;12.90;7.82;;;12.20;99.90;;;;;;4999016;28;20120;-68
2022/10/09 09:21:36;;;;;;;10.82;7.40;;;12.30;99.90;;;;;;5022465;28;20142;-68
2022/10/09 09:24:35;;;;;;;14.45;6.97;;;12.50;99.90;;;;;;5001595;28;20049;-68
2022/10/09 09:27:10;;;;;;;16.65;7.30;;;12.60;99.90;;;;;;4955912;28;20088;-68
2022/10/09 09:29:42;;;;;;;15.85;7.22;;;12.80;99.90;;;;;;4992569;28;20057;-68
2022/10/09 09:32:16;;;;;;;13.43;6.60;;;12.90;99.90;;;;;;4990018;28;20042;-68
2022/10/09 09:34:43;;;;;;;11.38;6.40;;;13.00;99.90;;;;;;4988661;28;20053;-68
2022/10/09 09:37:12;;;;;;;11.07;6.35;;;13.10;99.90;;;;;;4974372;28;20045;-68
2022/10/09 09:39:39;;;;;;;12.57;5.65;;;13.30;99.90;;;;;;5008223;28;20052;-68
2022/10/09 09:42:08;;;;;;;13.75;6.25;;;13.30;99.90;;;;;;5007904;28;20073;-69
2022/10/09 09:44:38;;;;;;;14.43;6.05;;;13.40;99.90;;;;;;5002536;28;20433;-68
2022/10/09 09:47:20;;;;;;;11.43;5.70;;;13.40;99.90;;;;;;5011856;28;20328;-68
2022/10/09 09:49:57;;;;;;;10.30;5.70;;;13.40;99.90;;;;;;4996840;28;20143;-69
2022/10/09 09:52:30;;;;;;;9.52;5.22;;;13.50;99.90;;;;;;5018113;28;20034;-68
2022/10/09 09:54:57;;;;;;;9.75;4.88;;;13.60;99.90;;;;;;4997318;28;20042;-68
2022/10/09 09:57:34;;;;;;;9.77;5.07;;;13.70;99.90;;;;;;4993462;28;20529;-68
2022/10/09 10:00:19;;;;;;;6.32;3.67;;;13.80;99.90;;;;;;4999721;28;20044;-68
2022/10/09 10:02:46;;;;;;;8.65;3.70;;;13.90;99.90;;;;;;5008366;28;20045;-69
2022/10/09 10:05:35;;;;;;;10.10;4.00;;;14.00;99.90;;;;;;5006879;28;20041;-69
2022/10/09 10:08:19;;;;;;;12.40;4.60;;;14.20;99.90;;;;;;5004830;28;20038;-69
2022/10/09 10:10:46;;;;;;;9.80;4.30;;;14.40;99.90;;;;;;5008750;28;20878;-69
2022/10/09 10:13:19;;;;;;;9.00;3.75;;;14.50;99.90;;;;;;5021625;28;20037;-69
2022/10/09 10:15:49;;;;;;;;;;;14.70;99.90;;;;;;4986495;28;20045;-69
2022/10/09 10:18:17;;;;;;;12.30;3.97;;;14.80;99.90;;;;;;5006016;28;20378;-69
2022/10/09 10:20:53;;;;;;;11.95;3.70;;;14.90;99.90;;;;;;4997699;28;20108;-69
2022/10/09 10:23:45;;;;;;;14.13;3.90;;;15.00;99.90;;;;;;4985975;28;20038;-69
2022/10/09 10:26:38;;;;;;;7.82;3.72;;;15.10;99.90;;;;;;5012099;28;20038;-69
2022/10/09 10:29:16;;;;;;;11.48;4.00;;;15.10;99.90;;;;;;5025066;28;20029;-69
2022/10/09 10:32:13;;;;;;;10.25;4.10;;;15.20;99.90;;;;;;5008840;28;20045;-68
2022/10/09 10:34:45;;;;;;;11.30;3.35;;;15.40;99.90;;;;;;5009186;28;20072;-68
2022/10/09 10:37:13;;;;;;;6.60;3.00;;;15.40;99.90;;;;;;5004102;28;20050;-68
2022/10/09 10:39:49;;;;;;;8.35;3.47;;;15.50;99.90;;;;;;5025408;28;20117;-68
2022/10/09 10:42:43;;;;;;;14.20;4.30;;;15.60;99.90;;;;;;5027522;28;20060;-68
2022/10/09 10:45:36;;;;;;;9.70;3.45;;;15.60;99.90;;;;;;5023944;28;20361;-68
2022/10/09 10:48:04;;;;;;;10.85;3.25;;;15.60;99.90;;;;;;4995448;28;20056;-68
2022/10/09 10:50:39;;;;;;;7.03;3.00;;;15.70;99.90;;;;;;5008037;28;20033;-68
2022/10/09 10:53:25;;;;;;;9.00;2.92;;;15.70;99.90;;;;;;4998418;28;20104;-68
2022/10/09 10:56:00;;;;;;;9.50;3.85;;;15.80;99.90;;;;;;5006679;28;20041;-68
2022/10/09 10:58:28;;;;;;;9.80;3.55;;;15.90;99.90;;;;;;5023342;28;20132;-68
2022/10/09 11:01:16;;;;;;;10.43;3.63;;;15.90;99.90;;;;;;5009510;28;20098;-68
2022/10/09 11:04:20;;;;;;;7.40;3.05;;;15.90;99.90;;;;;;5026166;28;20037;-68
2022/10/09 11:07:19;;;;;;;7.40;2.92;;;16.00;99.90;;;;;;5024188;28;20487;-68
2022/10/09 11:09:57;;;;;;;8.20;2.88;;;16.20;99.90;;;;;;5007834;28;20120;-68
2022/10/09 11:13:01;;;;;;;10.40;3.00;;;16.30;99.90;;;;;;5006446;28;20049;-68
2022/10/09 11:15:37;;;;;;;10.15;3.55;;;16.20;99.90;;;;;;5001671;28;20049;-69
2022/10/09 11:18:43;;;;;;;7.68;3.13;;;16.10;99.90;;;;;;5004791;28;20036;-68
2022/10/09 11:21:28;;;;;;;7.75;2.95;;;16.10;99.90;;;;;;5007782;28;20073;-68
2022/10/09 11:24:10;;;;;;;12.48;3.28;;;16.20;99.90;;;;;;5009136;28;20984;-68
2022/10/09 11:26:48;;;;;;;5.75;2.40;;;16.30;99.90;;;;;;5007386;28;20037;-68
2022/10/09 11:29:20;;;;;;;10.05;2.90;;;16.30;99.90;;;;;;5007235;28;20041;-69
2022/10/09 11:31:54;;;;;;;6.47;2.85;;;16.30;99.90;;;;;;4990212;28;20126;-69
2022/10/09 11:34:50;;;;;;;7.22;3.40;;;16.30;99.90;;;;;;5003697;28;20041;-68
2022/10/09 11:37:24;;;;;;;6.60;2.90;;;16.30;99.90;;;;;;5019854;28;20047;-68
2022/10/09 11:39:50;;;;;;;6.45;2.90;;;16.40;99.90;;;;;;5005555;28;20107;-68
2022/10/09 11:42:21;;;;;;;7.63;2.95;;;16.40;99.90;;;;;;5006694;28;20045;-68
2022/10/09 11:45:20;;;;;;;6.13;2.35;;;16.50;99.90;;;;;;5023555;28;20040;-69
2022/10/09 11:48:17;;;;;;;6.25;2.40;;;16.50;99.90;;;;;;5007983;28;20512;-69
2022/10/09 11:50:59;;;;;;;8.52;2.75;;;16.60;99.90;;;;;;5002490;28;20045;-69
2022/10/09 11:53:28;;;;;;;7.45;2.70;;;16.70;99.90;;;;;;5010419;28;20044;-69
2022/10/09 11:56:19;;;;;;;17.20;3.22;;;16.70;99.90;;;;;;5007363;28;20425;-69
2022/10/09 11:58:59;;;;;;;7.97;2.90;;;16.70;99.90;;;;;;5006380;28;20652;-69
2022/10/09 12:01:32;;;;;;;5.82;2.20;;;16.70;99.90;;;;;;5003617;28;20037;-69
2022/10/09 12:04:12;;;;;;;4.63;2.53;;;16.80;99.90;;;;;;5022833;28;20111;-69
2022/10/09 12:07:01;;;;;;;6.72;3.08;;;16.70;99.90;;;;;;5005616;28;20045;-69
2022/10/09 12:09:36;;;;;;;5.63;3.10;;;16.80;99.90;;;;;;5001533;28;20147;-69
2022/10/09 12:12:19;;;;;;;6.30;2.55;;;16.70;99.90;;;;;;5001327;28;20570;-70
2022/10/09 12:14:47;;;;;;;6.00;2.90;;;16.60;99.90;;;;;;4985957;28;20517;-69
2022/10/09 12:17:34;;;;;;;6.80;2.65;;;16.70;99.90;;;;;;5002242;28;20659;-70
2022/10/09 12:20:17;;;;;;;5.82;2.53;;;16.70;99.90;;;;;;5023892;28;20520;-70
2022/10/09 12:22:48;;;;;;;8.55;2.58;;;16.70;99.90;;;;;;5004905;28;20041;-69
2022/10/09 12:25:42;;;;;;;3.78;2.58;;;16.70;99.90;;;;;;5003045;28;20045;-70
2022/10/09 12:28:36;;;;;;;5.55;2.47;;;16.60;99.90;;;;;;4989501;28;20049;-70
2022/10/09 12:31:07;;;;;;;6.13;2.70;;;16.70;99.90;;;;;;4977242;28;20045;-70
2022/10/09 12:33:42;;;;;;;6.50;2.55;;;16.70;99.90;;;;;;5007115;28;20045;-70
2022/10/09 12:36:13;;;;;;;6.00;2.70;;;16.60;99.90;;;;;;5004686;28;20214;-70
2022/10/09 12:38:39;;;;;;;3.50;2.22;;;16.70;99.90;;;;;;5003875;28;20048;-70
2022/10/09 12:41:12;;;;;;;7.28;2.90;;;16.80;99.90;;;;;;4988182;28;20554;-70
2022/10/09 12:43:44;;;;;;;6.78;2.85;;;16.90;99.90;;;;;;5000683;28;20499;-70
2022/10/09 12:46:12;;;;;;;6.90;2.63;;;16.80;99.90;;;;;;4979930;28;20398;-70
2022/10/09 12:48:42;;;;;;;5.00;2.70;;;16.80;99.90;;;;;;4980660;28;20094;-70
2022/10/09 12:51:29;;;;;;;6.32;2.53;;;16.80;99.90;;;;;;4996901;28;20041;-70
2022/10/09 12:53:55;;;;;;;6.20;2.53;;;16.90;99.90;;;;;;4999466;28;20522;-69
2022/10/09 12:56:29;;;;;;;8.27;3.00;;;16.90;99.90;;;;;;4986577;28;20128;-70
2022/10/09 12:58:57;;;;;;;8.48;2.95;;;16.90;99.90;;;;;;5002195;28;20120;-70
2022/10/09 13:01:23;;;;;;;6.45;2.70;;;16.90;99.90;;;;;;4977815;28;20049;-70
2022/10/09 13:04:03;;;;;;;9.45;2.95;;;16.90;99.90;;;;;;5001478;28;20033;-69
2022/10/09 13:06:48;;;;;;;12.68;3.70;;;16.90;99.40;;;;;;4995437;28;20049;-69